Weather at Hamburg Airport [CLOSED]

Public forecast

Using degrees Celsius for public forecast. Weather courtesy of forecast.io.

Closest aviation weather report (METAR) to Hamburg Airport

Closest report is Fort St John Airport, 74.3 nm (137.7 km) SSW. Retrieved 2020/11/28 07:25 UTC (11 minutes ago):

CYXJ 280725Z 00000KT 8SM SCT060 BKN140 M04/M04 A2976 RMK SC3AC4 SLP115

Closest aviation forecast (TAF) to Hamburg Airport

Closest forecast is Fort St John Airport, 74.3 nm (137.7 km) SSW. Retrieved 2020/11/28 07:39 UTC (0 seconds ago):

TAF CYXJ 280638Z 2807/2819 VRB03KT P6SM FEW015 SCT050 BKN120 TEMPO 2807/2808 5SM -SN BKN015 OVC050 FM280800 VRB03KT P6SM FEW015 BKN120 BECMG 2808/2810 24008KT FM281000 24008KT P6SM SCT220 RMK NXT FCST BY 281300Z